sensor_id;sensor_type;location;lat;lon;timestamp;P1;durP1;ratioP1;P2;durP2;ratioP2
37383;SDS011;23258;49.718;11.082;2023-03-05T00:00:06;14.97;;;7.50;;
37383;SDS011;23258;49.718;11.082;2023-03-05T00:02:39;12.80;;;7.50;;
37383;SDS011;23258;49.718;11.082;2023-03-05T00:05:09;10.87;;;7.23;;
37383;SDS011;23258;49.718;11.082;2023-03-05T00:07:38;10.80;;;7.60;;
37383;SDS011;23258;49.718;11.082;2023-03-05T00:10:08;11.80;;;7.47;;
37383;SDS011;23258;49.718;11.082;2023-03-05T00:12:41;12.07;;;7.37;;
37383;SDS011;23258;49.718;11.082;2023-03-05T00:15:11;11.87;;;7.90;;
37383;SDS011;23258;49.718;11.082;2023-03-05T00:17:40;12.33;;;8.03;;
37383;SDS011;23258;49.718;11.082;2023-03-05T00:20:10;10.87;;;7.10;;
37383;SDS011;23258;49.718;11.082;2023-03-05T00:22:40;8.63;;;7.33;;
37383;SDS011;23258;49.718;11.082;2023-03-05T00:25:09;10.60;;;6.67;;
37383;SDS011;23258;49.718;11.082;2023-03-05T00:27:42;10.10;;;7.53;;
37383;SDS011;23258;49.718;11.082;2023-03-05T00:30:12;14.37;;;7.10;;
37383;SDS011;23258;49.718;11.082;2023-03-05T00:32:41;12.00;;;7.60;;
37383;SDS011;23258;49.718;11.082;2023-03-05T00:35:11;9.80;;;7.43;;
37383;SDS011;23258;49.718;11.082;2023-03-05T00:37:41;11.63;;;8.57;;
37383;SDS011;23258;49.718;11.082;2023-03-05T00:40:11;13.27;;;8.23;;
37383;SDS011;23258;49.718;11.082;2023-03-05T00:42:43;14.10;;;7.90;;
37383;SDS011;23258;49.718;11.082;2023-03-05T00:45:13;13.93;;;7.67;;
37383;SDS011;23258;49.718;11.082;2023-03-05T00:47:42;9.40;;;7.50;;
37383;SDS011;23258;49.718;11.082;2023-03-05T00:50:12;13.70;;;7.87;;
37383;SDS011;23258;49.718;11.082;2023-03-05T00:52:41;8.77;;;7.03;;
37383;SDS011;23258;49.718;11.082;2023-03-05T00:55:11;13.27;;;8.17;;
37383;SDS011;23258;49.718;11.082;2023-03-05T00:57:43;14.90;;;8.50;;
37383;SDS011;23258;49.718;11.082;2023-03-05T01:00:13;11.10;;;7.30;;
37383;SDS011;23258;49.718;11.082;2023-03-05T01:02:43;8.27;;;6.63;;
37383;SDS011;23258;49.718;11.082;2023-03-05T01:05:13;11.30;;;7.30;;
37383;SDS011;23258;49.718;11.082;2023-03-05T01:07:43;13.23;;;6.83;;
37383;SDS011;23258;49.718;11.082;2023-03-05T01:10:12;7.80;;;6.00;;
37383;SDS011;23258;49.718;11.082;2023-03-05T01:12:44;10.80;;;5.80;;
37383;SDS011;23258;49.718;11.082;2023-03-05T01:15:14;8.90;;;5.83;;
37383;SDS011;23258;49.718;11.082;2023-03-05T01:17:43;6.03;;;4.83;;
37383;SDS011;23258;49.718;11.082;2023-03-05T01:20:13;8.73;;;4.73;;
37383;SDS011;23258;49.718;11.082;2023-03-05T01:22:43;9.37;;;5.17;;
37383;SDS011;23258;49.718;11.082;2023-03-05T01:25:13;6.30;;;4.67;;
37383;SDS011;23258;49.718;11.082;2023-03-05T01:27:45;4.90;;;4.07;;
37383;SDS011;23258;49.718;11.082;2023-03-05T01:30:15;8.50;;;5.10;;
37383;SDS011;23258;49.718;11.082;2023-03-05T01:32:45;6.33;;;4.80;;
37383;SDS011;23258;49.718;11.082;2023-03-05T01:35:15;4.63;;;4.00;;
37383;SDS011;23258;49.718;11.082;2023-03-05T01:37:46;6.90;;;4.03;;
37383;SDS011;23258;49.718;11.082;2023-03-05T01:40:16;6.63;;;4.23;;
37383;SDS011;23258;49.718;11.082;2023-03-05T01:42:54;8.03;;;4.27;;
37383;SDS011;23258;49.718;11.082;2023-03-05T01:45:24;6.67;;;4.30;;
37383;SDS011;23258;49.718;11.082;2023-03-05T01:47:54;10.67;;;4.40;;
37383;SDS011;23258;49.718;11.082;2023-03-05T01:50:24;5.97;;;3.87;;
37383;SDS011;23258;49.718;11.082;2023-03-05T01:52:56;4.33;;;3.43;;
37383;SDS011;23258;49.718;11.082;2023-03-05T01:55:27;5.90;;;3.80;;
37383;SDS011;23258;49.718;11.082;2023-03-05T01:58:01;5.17;;;4.00;;
37383;SDS011;23258;49.718;11.082;2023-03-05T02:00:33;5.90;;;3.87;;
37383;SDS011;23258;49.718;11.082;2023-03-05T02:03:04;5.87;;;3.57;;
37383;SDS011;23258;49.718;11.082;2023-03-05T02:05:36;6.83;;;4.37;;
37383;SDS011;23258;49.718;11.082;2023-03-05T02:08:07;3.73;;;3.27;;
37383;SDS011;23258;49.718;11.082;2023-03-05T02:10:38;4.93;;;3.80;;
37383;SDS011;23258;49.718;11.082;2023-03-05T02:13:12;6.27;;;3.63;;
37383;SDS011;23258;49.718;11.082;2023-03-05T02:15:43;4.80;;;3.70;;
37383;SDS011;23258;49.718;11.082;2023-03-05T02:18:13;5.40;;;3.87;;
37383;SDS011;23258;49.718;11.082;2023-03-05T02:20:43;4.83;;;4.17;;
37383;SDS011;23258;49.718;11.082;2023-03-05T02:23:15;8.33;;;4.40;;
37383;SDS011;23258;49.718;11.082;2023-03-05T02:25:46;4.60;;;3.77;;
37383;SDS011;23258;49.718;11.082;2023-03-05T02:28:17;6.47;;;5.30;;
37383;SDS011;23258;49.718;11.082;2023-03-05T02:30:48;5.70;;;4.97;;
37383;SDS011;23258;49.718;11.082;2023-03-05T02:33:18;7.97;;;5.17;;
37383;SDS011;23258;49.718;11.082;2023-03-05T02:35:48;7.80;;;4.67;;
37383;SDS011;23258;49.718;11.082;2023-03-05T02:38:20;4.93;;;3.93;;
37383;SDS011;23258;49.718;11.082;2023-03-05T02:40:51;4.87;;;3.87;;
37383;SDS011;23258;49.718;11.082;2023-03-05T02:43:20;4.93;;;3.57;;
37383;SDS011;23258;49.718;11.082;2023-03-05T02:45:50;5.70;;;4.30;;
37383;SDS011;23258;49.718;11.082;2023-03-05T02:48:19;5.50;;;4.07;;
37383;SDS011;23258;49.718;11.082;2023-03-05T02:50:49;7.60;;;3.93;;
37383;SDS011;23258;49.718;11.082;2023-03-05T02:53:22;5.63;;;4.13;;
37383;SDS011;23258;49.718;11.082;2023-03-05T02:55:52;5.43;;;4.57;;
37383;SDS011;23258;49.718;11.082;2023-03-05T02:58:21;6.80;;;4.47;;
37383;SDS011;23258;49.718;11.082;2023-03-05T03:00:51;6.07;;;4.63;;
37383;SDS011;23258;49.718;11.082;2023-03-05T03:03:20;6.73;;;4.50;;
37383;SDS011;23258;49.718;11.082;2023-03-05T03:05:50;7.70;;;4.90;;
37383;SDS011;23258;49.718;11.082;2023-03-05T03:08:22;7.17;;;4.67;;
37383;SDS011;23258;49.718;11.082;2023-03-05T03:10:52;6.70;;;4.63;;
37383;SDS011;23258;49.718;11.082;2023-03-05T03:13:22;6.50;;;4.80;;
37383;SDS011;23258;49.718;11.082;2023-03-05T03:16:00;6.37;;;4.63;;
37383;SDS011;23258;49.718;11.082;2023-03-05T03:18:29;3.67;;;3.37;;
37383;SDS011;23258;49.718;11.082;2023-03-05T03:20:59;5.10;;;3.80;;
37383;SDS011;23258;49.718;11.082;2023-03-05T03:23:31;6.63;;;3.83;;
37383;SDS011;23258;49.718;11.082;2023-03-05T03:26:01;8.93;;;4.50;;
37383;SDS011;23258;49.718;11.082;2023-03-05T03:28:30;5.80;;;3.93;;
37383;SDS011;23258;49.718;11.082;2023-03-05T03:31:00;4.97;;;4.00;;
37383;SDS011;23258;49.718;11.082;2023-03-05T03:33:30;4.40;;;3.70;;
37383;SDS011;23258;49.718;11.082;2023-03-05T03:35:59;4.70;;;3.83;;
37383;SDS011;23258;49.718;11.082;2023-03-05T03:38:31;5.57;;;3.93;;
37383;SDS011;23258;49.718;11.082;2023-03-05T03:41:02;5.57;;;3.93;;
37383;SDS011;23258;49.718;11.082;2023-03-05T03:43:33;5.20;;;3.63;;
37383;SDS011;23258;49.718;11.082;2023-03-05T03:46:03;6.87;;;3.37;;
37383;SDS011;23258;49.718;11.082;2023-03-05T03:48:33;4.63;;;3.20;;
37383;SDS011;23258;49.718;11.082;2023-03-05T03:51:05;5.43;;;3.70;;
37383;SDS011;23258;49.718;11.082;2023-03-05T03:53:37;5.73;;;3.33;;
37383;SDS011;23258;49.718;11.082;2023-03-05T03:56:07;4.70;;;3.57;;
37383;SDS011;23258;49.718;11.082;2023-03-05T03:58:37;5.37;;;3.17;;
37383;SDS011;23258;49.718;11.082;2023-03-05T04:01:06;5.30;;;3.00;;
37383;SDS011;23258;49.718;11.082;2023-03-05T04:03:36;5.00;;;3.40;;
37383;SDS011;23258;49.718;11.082;2023-03-05T04:06:05;5.37;;;2.57;;
37383;SDS011;23258;49.718;11.082;2023-03-05T04:08:37;2.87;;;2.47;;
37383;SDS011;23258;49.718;11.082;2023-03-05T04:11:07;3.97;;;2.67;;
37383;SDS011;23258;49.718;11.082;2023-03-05T04:13:37;8.23;;;2.90;;
37383;SDS011;23258;49.718;11.082;2023-03-05T04:16:06;4.33;;;2.90;;
37383;SDS011;23258;49.718;11.082;2023-03-05T04:18:36;2.97;;;2.43;;
37383;SDS011;23258;49.718;11.082;2023-03-05T04:21:05;4.90;;;2.57;;
37383;SDS011;23258;49.718;11.082;2023-03-05T04:23:38;3.17;;;2.83;;
37383;SDS011;23258;49.718;11.082;2023-03-05T04:26:07;4.60;;;2.60;;
37383;SDS011;23258;49.718;11.082;2023-03-05T04:28:37;4.60;;;2.70;;
37383;SDS011;23258;49.718;11.082;2023-03-05T04:31:06;2.57;;;2.37;;
37383;SDS011;23258;49.718;11.082;2023-03-05T04:33:36;6.20;;;3.63;;
37383;SDS011;23258;49.718;11.082;2023-03-05T04:36:06;5.40;;;3.70;;
37383;SDS011;23258;49.718;11.082;2023-03-05T04:38:38;4.97;;;3.30;;
37383;SDS011;23258;49.718;11.082;2023-03-05T04:41:08;7.77;;;4.07;;
37383;SDS011;23258;49.718;11.082;2023-03-05T04:43:37;6.83;;;3.80;;
37383;SDS011;23258;49.718;11.082;2023-03-05T04:46:07;5.63;;;4.07;;
37383;SDS011;23258;49.718;11.082;2023-03-05T04:48:36;9.70;;;4.73;;
37383;SDS011;23258;49.718;11.082;2023-03-05T04:51:06;4.17;;;3.77;;
37383;SDS011;23258;49.718;11.082;2023-03-05T04:53:38;5.33;;;3.93;;
37383;SDS011;23258;49.718;11.082;2023-03-05T04:56:07;4.47;;;4.03;;
37383;SDS011;23258;49.718;11.082;2023-03-05T04:58:37;5.57;;;4.30;;
37383;SDS011;23258;49.718;11.082;2023-03-05T05:01:06;6.53;;;4.67;;
37383;SDS011;23258;49.718;11.082;2023-03-05T05:03:36;7.50;;;4.60;;
37383;SDS011;23258;49.718;11.082;2023-03-05T05:06:05;5.20;;;4.23;;
37383;SDS011;23258;49.718;11.082;2023-03-05T05:08:38;7.73;;;4.30;;
37383;SDS011;23258;49.718;11.082;2023-03-05T05:11:10;8.27;;;4.23;;
37383;SDS011;23258;49.718;11.082;2023-03-05T05:13:41;8.00;;;4.63;;
37383;SDS011;23258;49.718;11.082;2023-03-05T05:16:10;7.03;;;4.23;;
37383;SDS011;23258;49.718;11.082;2023-03-05T05:18:41;7.07;;;4.23;;
37383;SDS011;23258;49.718;11.082;2023-03-05T05:21:11;8.63;;;5.20;;
37383;SDS011;23258;49.718;11.082;2023-03-05T05:23:44;7.33;;;5.17;;
37383;SDS011;23258;49.718;11.082;2023-03-05T05:26:13;6.83;;;5.73;;
37383;SDS011;23258;49.718;11.082;2023-03-05T05:28:43;7.53;;;6.10;;
37383;SDS011;23258;49.718;11.082;2023-03-05T05:31:13;8.83;;;6.13;;
37383;SDS011;23258;49.718;11.082;2023-03-05T05:33:43;11.50;;;6.13;;
37383;SDS011;23258;49.718;11.082;2023-03-05T05:36:15;9.17;;;5.73;;
37383;SDS011;23258;49.718;11.082;2023-03-05T05:38:53;7.67;;;5.83;;
37383;SDS011;23258;49.718;11.082;2023-03-05T05:41:23;9.40;;;6.23;;
37383;SDS011;23258;49.718;11.082;2023-03-05T05:43:52;10.00;;;6.50;;
37383;SDS011;23258;49.718;11.082;2023-03-05T05:46:22;7.70;;;6.07;;
37383;SDS011;23258;49.718;11.082;2023-03-05T05:48:53;9.67;;;6.67;;
37383;SDS011;23258;49.718;11.082;2023-03-05T05:51:22;7.93;;;5.93;;
37383;SDS011;23258;49.718;11.082;2023-03-05T05:53:54;9.20;;;6.63;;
37383;SDS011;23258;49.718;11.082;2023-03-05T05:56:24;11.03;;;6.83;;
37383;SDS011;23258;49.718;11.082;2023-03-05T05:58:54;11.70;;;7.53;;
37383;SDS011;23258;49.718;11.082;2023-03-05T06:01:25;11.13;;;7.23;;
37383;SDS011;23258;49.718;11.082;2023-03-05T06:03:55;12.30;;;6.80;;
37383;SDS011;23258;49.718;11.082;2023-03-05T06:06:25;12.47;;;6.87;;
37383;SDS011;23258;49.718;11.082;2023-03-05T06:08:57;9.40;;;6.20;;
37383;SDS011;23258;49.718;11.082;2023-03-05T06:11:26;9.10;;;6.63;;
37383;SDS011;23258;49.718;11.082;2023-03-05T06:13:56;12.30;;;7.33;;
37383;SDS011;23258;49.718;11.082;2023-03-05T06:16:28;11.87;;;6.73;;
37383;SDS011;23258;49.718;11.082;2023-03-05T06:18:57;11.57;;;6.93;;
37383;SDS011;23258;49.718;11.082;2023-03-05T06:21:30;10.87;;;6.50;;
37383;SDS011;23258;49.718;11.082;2023-03-05T06:24:02;8.67;;;6.60;;
37383;SDS011;23258;49.718;11.082;2023-03-05T06:26:32;10.80;;;7.10;;
37383;SDS011;23258;49.718;11.082;2023-03-05T06:29:02;10.70;;;6.67;;
37383;SDS011;23258;49.718;11.082;2023-03-05T06:31:32;9.33;;;6.23;;
37383;SDS011;23258;49.718;11.082;2023-03-05T06:34:03;13.60;;;6.83;;
37383;SDS011;23258;49.718;11.082;2023-03-05T06:36:32;10.53;;;6.57;;
37383;SDS011;23258;49.718;11.082;2023-03-05T06:39:05;8.90;;;6.20;;
37383;SDS011;23258;49.718;11.082;2023-03-05T06:41:34;9.87;;;6.60;;
37383;SDS011;23258;49.718;11.082;2023-03-05T06:44:04;9.87;;;6.60;;
37383;SDS011;23258;49.718;11.082;2023-03-05T06:46:34;9.53;;;6.27;;
37383;SDS011;23258;49.718;11.082;2023-03-05T06:49:05;10.33;;;5.87;;
37383;SDS011;23258;49.718;11.082;2023-03-05T06:51:36;9.20;;;5.47;;
37383;SDS011;23258;49.718;11.082;2023-03-05T06:54:10;8.23;;;5.07;;
37383;SDS011;23258;49.718;11.082;2023-03-05T06:56:40;7.37;;;4.93;;
37383;SDS011;23258;49.718;11.082;2023-03-05T06:59:10;9.17;;;5.30;;
37383;SDS011;23258;49.718;11.082;2023-03-05T07:01:41;4.30;;;3.90;;
37383;SDS011;23258;49.718;11.082;2023-03-05T07:04:10;8.63;;;4.20;;
37383;SDS011;23258;49.718;11.082;2023-03-05T07:06:40;7.93;;;5.27;;
37383;SDS011;23258;49.718;11.082;2023-03-05T07:09:13;8.37;;;4.30;;
37383;SDS011;23258;49.718;11.082;2023-03-05T07:11:43;7.87;;;4.47;;
37383;SDS011;23258;49.718;11.082;2023-03-05T07:14:12;7.20;;;4.67;;
37383;SDS011;23258;49.718;11.082;2023-03-05T07:16:42;8.27;;;4.90;;
37383;SDS011;23258;49.718;11.082;2023-03-05T07:19:11;7.73;;;4.27;;
37383;SDS011;23258;49.718;11.082;2023-03-05T07:21:41;7.40;;;4.67;;
37383;SDS011;23258;49.718;11.082;2023-03-05T07:24:13;5.73;;;3.77;;
37383;SDS011;23258;49.718;11.082;2023-03-05T07:26:43;4.67;;;3.73;;
37383;SDS011;23258;49.718;11.082;2023-03-05T07:29:14;6.37;;;4.53;;
37383;SDS011;23258;49.718;11.082;2023-03-05T07:31:43;7.43;;;4.57;;
37383;SDS011;23258;49.718;11.082;2023-03-05T07:34:13;4.43;;;3.83;;
37383;SDS011;23258;49.718;11.082;2023-03-05T07:36:42;6.60;;;4.67;;
37383;SDS011;23258;49.718;11.082;2023-03-05T07:39:15;5.57;;;3.93;;
37383;SDS011;23258;49.718;11.082;2023-03-05T07:41:45;8.27;;;4.30;;
37383;SDS011;23258;49.718;11.082;2023-03-05T07:44:16;5.20;;;4.43;;
37383;SDS011;23258;49.718;11.082;2023-03-05T07:46:46;4.63;;;3.53;;
37383;SDS011;23258;49.718;11.082;2023-03-05T07:49:15;9.23;;;4.47;;
37383;SDS011;23258;49.718;11.082;2023-03-05T07:51:45;6.90;;;4.00;;
37383;SDS011;23258;49.718;11.082;2023-03-05T07:54:17;5.80;;;3.83;;
37383;SDS011;23258;49.718;11.082;2023-03-05T07:56:46;6.47;;;3.90;;
37383;SDS011;23258;49.718;11.082;2023-03-05T07:59:16;6.50;;;4.50;;
37383;SDS011;23258;49.718;11.082;2023-03-05T08:01:45;4.20;;;3.40;;
37383;SDS011;23258;49.718;11.082;2023-03-05T08:04:15;7.70;;;4.43;;
37383;SDS011;23258;49.718;11.082;2023-03-05T08:06:45;5.53;;;3.57;;
37383;SDS011;23258;49.718;11.082;2023-03-05T08:09:18;4.43;;;3.57;;
37383;SDS011;23258;49.718;11.082;2023-03-05T08:11:48;6.60;;;4.40;;
37383;SDS011;23258;49.718;11.082;2023-03-05T08:14:17;3.80;;;3.40;;
37383;SDS011;23258;49.718;11.082;2023-03-05T08:16:47;4.43;;;3.57;;
37383;SDS011;23258;49.718;11.082;2023-03-05T08:19:18;5.90;;;3.83;;
37383;SDS011;23258;49.718;11.082;2023-03-05T08:21:47;5.60;;;3.73;;
37383;SDS011;23258;49.718;11.082;2023-03-05T08:24:19;5.73;;;4.70;;
37383;SDS011;23258;49.718;11.082;2023-03-05T08:27:06;3.80;;;3.37;;
37383;SDS011;23258;49.718;11.082;2023-03-05T08:29:42;4.30;;;2.77;;
37383;SDS011;23258;49.718;11.082;2023-03-05T08:32:11;3.47;;;2.57;;
37383;SDS011;23258;49.718;11.082;2023-03-05T08:34:41;2.87;;;2.57;;
37383;SDS011;23258;49.718;11.082;2023-03-05T08:37:10;2.43;;;2.20;;
37383;SDS011;23258;49.718;11.082;2023-03-05T08:39:42;2.70;;;2.50;;
37383;SDS011;23258;49.718;11.082;2023-03-05T08:42:12;7.20;;;3.20;;
37383;SDS011;23258;49.718;11.082;2023-03-05T08:44:41;2.93;;;2.50;;
37383;SDS011;23258;49.718;11.082;2023-03-05T08:47:11;4.43;;;2.30;;
37383;SDS011;23258;49.718;11.082;2023-03-05T08:49:41;3.17;;;2.20;;
37383;SDS011;23258;49.718;11.082;2023-03-05T08:52:10;3.37;;;2.10;;
37383;SDS011;23258;49.718;11.082;2023-03-05T08:54:42;3.63;;;2.13;;
37383;SDS011;23258;49.718;11.082;2023-03-05T08:57:12;2.23;;;2.13;;
37383;SDS011;23258;49.718;11.082;2023-03-05T08:59:42;2.33;;;2.03;;
37383;SDS011;23258;49.718;11.082;2023-03-05T09:02:11;5.37;;;2.80;;
37383;SDS011;23258;49.718;11.082;2023-03-05T09:04:41;6.50;;;3.07;;
37383;SDS011;23258;49.718;11.082;2023-03-05T09:07:11;4.17;;;2.73;;
37383;SDS011;23258;49.718;11.082;2023-03-05T09:09:43;2.70;;;2.50;;
37383;SDS011;23258;49.718;11.082;2023-03-05T09:12:13;4.13;;;2.90;;
37383;SDS011;23258;49.718;11.082;2023-03-05T09:14:43;5.63;;;2.43;;
37383;SDS011;23258;49.718;11.082;2023-03-05T09:17:12;3.37;;;2.20;;
37383;SDS011;23258;49.718;11.082;2023-03-05T09:19:42;3.37;;;2.03;;
37383;SDS011;23258;49.718;11.082;2023-03-05T09:22:11;4.73;;;2.30;;
37383;SDS011;23258;49.718;11.082;2023-03-05T09:24:41;2.13;;;1.93;;
37383;SDS011;23258;49.718;11.082;2023-03-05T09:27:13;4.20;;;2.30;;
37383;SDS011;23258;49.718;11.082;2023-03-05T09:29:43;2.23;;;2.00;;
37383;SDS011;23258;49.718;11.082;2023-03-05T09:32:13;3.00;;;2.07;;
37383;SDS011;23258;49.718;11.082;2023-03-05T09:34:43;2.10;;;1.90;;
37383;SDS011;23258;49.718;11.082;2023-03-05T09:37:12;1.90;;;1.80;;
37383;SDS011;23258;49.718;11.082;2023-03-05T09:39:42;6.00;;;2.60;;
37383;SDS011;23258;49.718;11.082;2023-03-05T09:42:24;4.47;;;2.60;;
37383;SDS011;23258;49.718;11.082;2023-03-05T09:45:00;1.67;;;1.53;;
37383;SDS011;23258;49.718;11.082;2023-03-05T09:47:36;2.00;;;1.70;;
37383;SDS011;23258;49.718;11.082;2023-03-05T09:50:14;1.93;;;1.30;;
37383;SDS011;23258;49.718;11.082;2023-03-05T09:52:52;4.83;;;1.90;;
37383;SDS011;23258;49.718;11.082;2023-03-05T09:55:24;2.97;;;1.70;;
37383;SDS011;23258;49.718;11.082;2023-03-05T09:57:58;1.77;;;1.67;;
37383;SDS011;23258;49.718;11.082;2023-03-05T10:00:33;1.83;;;1.70;;
37383;SDS011;23258;49.718;11.082;2023-03-05T10:03:04;1.77;;;1.67;;
37383;SDS011;23258;49.718;11.082;2023-03-05T10:08:20;2.03;;;1.43;;
37383;SDS011;23258;49.718;11.082;2023-03-05T10:10:51;2.17;;;1.60;;
37383;SDS011;23258;49.718;11.082;2023-03-05T10:13:24;3.17;;;1.80;;
37383;SDS011;23258;49.718;11.082;2023-03-05T10:15:57;2.60;;;1.50;;
37383;SDS011;23258;49.718;11.082;2023-03-05T10:18:30;3.77;;;1.73;;
37383;SDS011;23258;49.718;11.082;2023-03-05T10:21:02;1.70;;;1.60;;
37383;SDS011;23258;49.718;11.082;2023-03-05T10:23:42;1.53;;;1.43;;
37383;SDS011;23258;49.718;11.082;2023-03-05T10:26:18;2.63;;;1.80;;
37383;SDS011;23258;49.718;11.082;2023-03-05T10:28:53;5.13;;;1.93;;
37383;SDS011;23258;49.718;11.082;2023-03-05T10:31:36;1.70;;;1.60;;
37383;SDS011;23258;49.718;11.082;2023-03-05T10:34:21;2.00;;;1.90;;
37383;SDS011;23258;49.718;11.082;2023-03-05T10:37:14;2.53;;;1.83;;
37383;SDS011;23258;49.718;11.082;2023-03-05T10:39:50;1.53;;;1.43;;
37383;SDS011;23258;49.718;11.082;2023-03-05T10:42:24;1.70;;;1.60;;
37383;SDS011;23258;49.718;11.082;2023-03-05T10:45:00;2.45;;;2.25;;
37383;SDS011;23258;49.718;11.082;2023-03-05T10:47:31;1.85;;;1.75;;
37383;SDS011;23258;49.718;11.082;2023-03-05T10:50:09;3.30;;;2.85;;
37383;SDS011;23258;49.718;11.082;2023-03-05T10:52:43;4.03;;;2.20;;
37383;SDS011;23258;49.718;11.082;2023-03-05T10:55:18;1.75;;;1.63;;
37383;SDS011;23258;49.718;11.082;2023-03-05T10:57:49;1.92;;;1.67;;
37383;SDS011;23258;49.718;11.082;2023-03-05T11:00:22;1.80;;;1.70;;
37383;SDS011;23258;49.718;11.082;2023-03-05T11:02:52;2.00;;;1.80;;
37383;SDS011;23258;49.718;11.082;2023-03-05T11:05:38;3.57;;;2.00;;
37383;SDS011;23258;49.718;11.082;2023-03-05T11:13:51;1.50;;;1.40;;
37383;SDS011;23258;49.718;11.082;2023-03-05T11:16:24;1.10;;;1.10;;
37383;SDS011;23258;49.718;11.082;2023-03-05T11:21:39;2.35;;;1.30;;
37383;SDS011;23258;49.718;11.082;2023-03-05T11:24:09;2.15;;;2.03;;
37383;SDS011;23258;49.718;11.082;2023-03-05T11:26:46;1.33;;;1.23;;
37383;SDS011;23258;49.718;11.082;2023-03-05T11:29:20;2.03;;;1.90;;
37383;SDS011;23258;49.718;11.082;2023-03-05T11:31:53;2.40;;;1.55;;
37383;SDS011;23258;49.718;11.082;2023-03-05T11:34:25;3.03;;;1.70;;
37383;SDS011;23258;49.718;11.082;2023-03-05T11:37:01;2.05;;;1.10;;
37383;SDS011;23258;49.718;11.082;2023-03-05T11:39:32;1.45;;;1.45;;
37383;SDS011;23258;49.718;11.082;2023-03-05T11:42:05;2.45;;;1.38;;
37383;SDS011;23258;49.718;11.082;2023-03-05T11:44:37;1.20;;;1.10;;
37383;SDS011;23258;49.718;11.082;2023-03-05T11:47:15;1.25;;;1.15;;
37383;SDS011;23258;49.718;11.082;2023-03-05T11:49:47;0.77;;;0.77;;
37383;SDS011;23258;49.718;11.082;2023-03-05T11:52:19;2.25;;;1.70;;
37383;SDS011;23258;49.718;11.082;2023-03-05T11:54:52;1.02;;;0.93;;
37383;SDS011;23258;49.718;11.082;2023-03-05T11:57:22;1.50;;;1.38;;
37383;SDS011;23258;49.718;11.082;2023-03-05T11:59:53;0.90;;;0.88;;
37383;SDS011;23258;49.718;11.082;2023-03-05T12:02:26;2.25;;;1.00;;
37383;SDS011;23258;49.718;11.082;2023-03-05T12:04:56;2.00;;;1.02;;
37383;SDS011;23258;49.718;11.082;2023-03-05T12:07:29;1.92;;;1.00;;
37383;SDS011;23258;49.718;11.082;2023-03-05T12:10:02;0.98;;;0.98;;
37383;SDS011;23258;49.718;11.082;2023-03-05T12:12:34;1.40;;;1.30;;
37383;SDS011;23258;49.718;11.082;2023-03-05T12:15:17;1.00;;;1.00;;
37383;SDS011;23258;49.718;11.082;2023-03-05T12:17:53;0.98;;;0.98;;
37383;SDS011;23258;49.718;11.082;2023-03-05T12:20:28;1.83;;;1.73;;
37383;SDS011;23258;49.718;11.082;2023-03-05T12:23:02;1.60;;;1.50;;
37383;SDS011;23258;49.718;11.082;2023-03-05T12:25:32;1.08;;;1.08;;
37383;SDS011;23258;49.718;11.082;2023-03-05T12:28:03;2.25;;;1.25;;
37383;SDS011;23258;49.718;11.082;2023-03-05T12:33:32;1.70;;;1.17;;
37383;SDS011;23258;49.718;11.082;2023-03-05T12:38:47;1.38;;;1.00;;
37383;SDS011;23258;49.718;11.082;2023-03-05T12:44:16;1.30;;;1.20;;
37383;SDS011;23258;49.718;11.082;2023-03-05T12:49:36;1.13;;;1.10;;
37383;SDS011;23258;49.718;11.082;2023-03-05T12:52:10;1.83;;;1.50;;
37383;SDS011;23258;49.718;11.082;2023-03-05T12:54:41;1.10;;;1.10;;
37383;SDS011;23258;49.718;11.082;2023-03-05T12:57:14;1.03;;;0.90;;
37383;SDS011;23258;49.718;11.082;2023-03-05T12:59:47;2.40;;;1.10;;
37383;SDS011;23258;49.718;11.082;2023-03-05T13:02:21;2.10;;;1.20;;
37383;SDS011;23258;49.718;11.082;2023-03-05T13:04:54;1.33;;;1.23;;
37383;SDS011;23258;49.718;11.082;2023-03-05T13:07:25;2.05;;;1.15;;
37383;SDS011;23258;49.718;11.082;2023-03-05T13:09:55;1.40;;;1.30;;
37383;SDS011;23258;49.718;11.082;2023-03-05T13:12:26;1.93;;;1.37;;
37383;SDS011;23258;49.718;11.082;2023-03-05T13:14:58;1.03;;;1.03;;
37383;SDS011;23258;49.718;11.082;2023-03-05T13:17:30;1.77;;;1.20;;
37383;SDS011;23258;49.718;11.082;2023-03-05T13:20:20;1.13;;;1.02;;
37383;SDS011;23258;49.718;11.082;2023-03-05T13:23:01;1.10;;;1.10;;
37383;SDS011;23258;49.718;11.082;2023-03-05T13:25:31;1.60;;;1.50;;
37383;SDS011;23258;49.718;11.082;2023-03-05T13:28:03;2.13;;;1.50;;
37383;SDS011;23258;49.718;11.082;2023-03-05T13:30:33;1.23;;;1.23;;
37383;SDS011;23258;49.718;11.082;2023-03-05T13:33:03;1.40;;;1.30;;
37383;SDS011;23258;49.718;11.082;2023-03-05T13:35:35;1.20;;;1.20;;
37383;SDS011;23258;49.718;11.082;2023-03-05T13:38:20;3.00;;;1.40;;
37383;SDS011;23258;49.718;11.082;2023-03-05T13:41:04;0.73;;;0.73;;
37383;SDS011;23258;49.718;11.082;2023-03-05T13:43:40;1.50;;;1.43;;
37383;SDS011;23258;49.718;11.082;2023-03-05T13:46:10;1.50;;;1.40;;
37383;SDS011;23258;49.718;11.082;2023-03-05T13:48:40;1.65;;;1.52;;
37383;SDS011;23258;49.718;11.082;2023-03-05T13:51:12;1.50;;;1.37;;
37383;SDS011;23258;49.718;11.082;2023-03-05T13:53:42;2.23;;;1.83;;
37383;SDS011;23258;49.718;11.082;2023-03-05T13:56:12;3.23;;;1.40;;
37383;SDS011;23258;49.718;11.082;2023-03-05T13:58:43;2.60;;;1.63;;
37383;SDS011;23258;49.718;11.082;2023-03-05T14:01:16;1.67;;;1.50;;
37383;SDS011;23258;49.718;11.082;2023-03-05T14:03:47;1.40;;;1.30;;
37383;SDS011;23258;49.718;11.082;2023-03-05T14:06:20;1.60;;;1.50;;
37383;SDS011;23258;49.718;11.082;2023-03-05T14:08:50;2.43;;;1.20;;
37383;SDS011;23258;49.718;11.082;2023-03-05T14:11:20;1.93;;;1.83;;
37383;SDS011;23258;49.718;11.082;2023-03-05T14:13:55;2.00;;;1.90;;
37383;SDS011;23258;49.718;11.082;2023-03-05T14:16:26;2.13;;;2.03;;
37383;SDS011;23258;49.718;11.082;2023-03-05T14:18:59;2.57;;;2.37;;
37383;SDS011;23258;49.718;11.082;2023-03-05T14:24:21;1.80;;;1.70;;
37383;SDS011;23258;49.718;11.082;2023-03-05T14:26:54;2.23;;;2.03;;
37383;SDS011;23258;49.718;11.082;2023-03-05T14:29:24;1.43;;;1.33;;
37383;SDS011;23258;49.718;11.082;2023-03-05T14:31:55;2.77;;;1.80;;
37383;SDS011;23258;49.718;11.082;2023-03-05T14:34:26;1.70;;;1.60;;
37383;SDS011;23258;49.718;11.082;2023-03-05T14:36:57;0.97;;;0.97;;
37383;SDS011;23258;49.718;11.082;2023-03-05T14:39:39;2.28;;;1.42;;
37383;SDS011;23258;49.718;11.082;2023-03-05T14:42:25;2.53;;;2.13;;
37383;SDS011;23258;49.718;11.082;2023-03-05T14:44:55;1.48;;;1.38;;
37383;SDS011;23258;49.718;11.082;2023-03-05T14:47:25;1.43;;;1.30;;
37383;SDS011;23258;49.718;11.082;2023-03-05T14:49:55;2.40;;;2.23;;
37383;SDS011;23258;49.718;11.082;2023-03-05T14:52:25;1.90;;;1.55;;
37383;SDS011;23258;49.718;11.082;2023-03-05T14:54:57;1.63;;;1.52;;
37383;SDS011;23258;49.718;11.082;2023-03-05T14:57:27;2.70;;;1.60;;
37383;SDS011;23258;49.718;11.082;2023-03-05T14:59:57;1.90;;;1.80;;
37383;SDS011;23258;49.718;11.082;2023-03-05T15:02:27;1.43;;;1.33;;
37383;SDS011;23258;49.718;11.082;2023-03-05T15:04:57;1.53;;;1.43;;
37383;SDS011;23258;49.718;11.082;2023-03-05T15:07:28;1.90;;;1.60;;
37383;SDS011;23258;49.718;11.082;2023-03-05T15:10:01;2.37;;;2.13;;
37383;SDS011;23258;49.718;11.082;2023-03-05T15:12:31;2.03;;;1.80;;
37383;SDS011;23258;49.718;11.082;2023-03-05T15:15:01;2.97;;;2.40;;
37383;SDS011;23258;49.718;11.082;2023-03-05T15:17:32;1.93;;;1.83;;
37383;SDS011;23258;49.718;11.082;2023-03-05T15:20:03;2.40;;;2.20;;
37383;SDS011;23258;49.718;11.082;2023-03-05T15:22:36;2.93;;;1.97;;